createdAt,value
2023-03-22T00:01:45.466Z,3872.00
2023-03-22T00:05:45.561Z,3915.00
2023-03-22T00:09:45.626Z,3879.00
2023-03-22T00:13:45.739Z,4406.00
2023-03-22T00:17:45.932Z,4408.00
2023-03-22T00:21:45.956Z,4499.00
2023-03-22T00:25:46.081Z,4173.00
2023-03-22T00:29:46.266Z,4264.00
2023-03-22T00:33:46.410Z,3883.00
2023-03-22T00:37:46.506Z,4068.00
2023-03-22T00:41:46.665Z,4156.00
2023-03-22T00:45:46.869Z,4058.00
2023-03-22T00:49:46.906Z,3726.00
2023-03-22T00:53:47.007Z,3764.00
2023-03-22T00:57:47.115Z,3631.00
2023-03-22T01:01:47.242Z,3914.00
2023-03-22T01:05:47.367Z,3960.00
2023-03-22T01:09:47.425Z,3967.00
2023-03-22T01:13:47.467Z,3958.00
2023-03-22T01:17:47.654Z,3674.00
2023-03-22T01:21:47.691Z,3735.00
2023-03-22T01:25:47.759Z,4001.00
2023-03-22T01:29:47.818Z,3777.00
2023-03-22T01:33:47.975Z,3577.00
2023-03-22T01:37:48.192Z,3544.00
2023-03-22T01:41:48.402Z,3572.00
2023-03-22T01:45:48.650Z,3495.00
2023-03-22T01:49:48.660Z,3356.00
2023-03-22T01:53:48.774Z,3272.00
2023-03-22T01:57:48.859Z,3393.00
2023-03-22T02:01:48.952Z,3173.00
2023-03-22T02:05:49.110Z,3186.00
2023-03-22T02:09:49.187Z,3191.00
2023-03-22T02:13:49.292Z,3210.00
2023-03-22T02:17:49.406Z,2853.00
2023-03-22T02:21:49.510Z,2841.00
2023-03-22T02:25:49.652Z,3075.00
2023-03-22T02:29:49.834Z,3048.00
2023-03-22T02:33:49.890Z,3234.00
2023-03-22T02:37:50.063Z,3122.00
2023-03-22T02:41:50.177Z,3020.00
2023-03-22T02:45:50.317Z,3024.00
2023-03-22T02:49:50.367Z,3143.00
2023-03-22T02:53:50.447Z,3212.00
2023-03-22T02:57:50.625Z,3195.00
2023-03-22T03:01:50.746Z,3142.00
2023-03-22T03:05:50.754Z,3158.00
2023-03-22T03:09:50.886Z,2897.00
2023-03-22T03:13:51.013Z,2923.00
2023-03-22T03:17:51.138Z,2896.00
2023-03-22T03:21:51.212Z,2984.00
2023-03-22T03:25:51.326Z,2838.00
2023-03-22T03:29:51.457Z,3151.00
2023-03-22T03:33:51.577Z,3120.00
2023-03-22T03:37:51.813Z,3137.00
2023-03-22T03:41:51.784Z,3048.00
2023-03-22T03:45:51.992Z,3146.00
2023-03-22T03:49:51.996Z,3414.00
2023-03-22T03:53:52.020Z,3583.00
2023-03-22T03:57:52.173Z,3798.00
2023-03-22T04:01:52.357Z,3337.00
2023-03-22T04:05:52.429Z,3578.00
2023-03-22T04:09:52.567Z,3526.00
2023-03-22T04:13:52.652Z,3109.00
2023-03-22T04:17:52.839Z,3241.00
2023-03-22T04:21:53.033Z,3413.00
2023-03-22T04:25:53.140Z,3670.00
2023-03-22T04:29:53.274Z,3680.00
2023-03-22T04:33:53.477Z,3563.00
2023-03-22T04:37:53.613Z,3560.00
2023-03-22T04:41:53.818Z,3542.00
2023-03-22T04:45:53.931Z,3542.00
2023-03-22T04:49:53.995Z,3493.00
2023-03-22T04:53:54.108Z,3575.00
2023-03-22T04:57:54.223Z,3639.00
2023-03-22T05:01:54.470Z,3643.00
2023-03-22T05:05:54.381Z,3651.00
2023-03-22T05:09:54.547Z,3715.00
2023-03-22T05:13:54.663Z,3767.00
2023-03-22T05:17:54.799Z,3722.00
2023-03-22T05:21:54.827Z,3462.00
2023-03-22T05:25:54.869Z,3503.00
2023-03-22T05:29:55.024Z,3424.00
2023-03-22T05:33:55.104Z,3616.00
2023-03-22T05:37:55.229Z,3786.00
2023-03-22T05:41:55.841Z,3779.00
2023-03-22T05:45:55.379Z,3697.00
2023-03-22T05:49:55.477Z,3395.00
2023-03-22T05:53:55.680Z,3484.00
2023-03-22T05:57:55.836Z,3613.00
2023-03-22T06:01:55.960Z,3581.00
2023-03-22T06:05:56.148Z,3578.00
2023-03-22T06:09:56.196Z,3706.00
2023-03-22T06:13:56.405Z,3805.00
2023-03-22T06:17:56.483Z,3872.00
2023-03-22T06:21:56.581Z,3903.00
2023-03-22T06:25:56.683Z,4023.00
2023-03-22T06:29:56.795Z,4005.00
2023-03-22T06:33:56.830Z,3932.00
2023-03-22T06:37:56.947Z,3623.00
2023-03-22T06:41:57.064Z,3790.00
2023-03-22T06:45:57.324Z,3517.00
2023-03-22T06:49:57.365Z,3357.00
2023-03-22T06:53:57.481Z,3018.00
2023-03-22T06:57:57.621Z,3063.00
2023-03-22T07:01:57.669Z,3132.00
2023-03-22T07:05:57.770Z,3164.00
2023-03-22T07:09:57.888Z,3001.00
2023-03-22T07:13:58.067Z,3088.00
2023-03-22T07:17:58.145Z,3199.00
2023-03-22T07:21:58.276Z,2936.00
2023-03-22T07:25:58.340Z,2703.00
2023-03-22T07:29:58.427Z,2632.00
2023-03-22T07:33:58.497Z,2624.00
2023-03-22T07:37:58.574Z,2448.00
2023-03-22T07:41:58.715Z,2383.00
2023-03-22T07:45:58.981Z,2303.00
2023-03-22T07:49:59.367Z,2298.00
2023-03-22T07:53:59.151Z,2384.00
2023-03-22T07:57:59.253Z,2591.00
2023-03-22T08:01:59.366Z,2208.00
2023-03-22T08:05:59.453Z,2618.00
2023-03-22T08:09:59.604Z,2557.00
2023-03-22T08:13:59.659Z,2035.00
2023-03-22T08:17:59.754Z,1781.00
2023-03-22T08:21:59.857Z,1888.00
2023-03-22T08:26:00.012Z,1800.00
2023-03-22T08:30:00.030Z,1983.00
2023-03-22T08:34:00.173Z,1337.00
2023-03-22T08:38:00.215Z,776.00
2023-03-22T08:42:00.321Z,930.00
2023-03-22T08:46:00.441Z,926.00
2023-03-22T08:50:00.521Z,1442.00
2023-03-22T08:54:00.627Z,642.00
2023-03-22T08:58:00.745Z,594.00
2023-03-22T09:02:01.046Z,517.00
2023-03-22T09:06:01.032Z,1620.00
2023-03-22T09:10:01.186Z,405.00
2023-03-22T09:14:01.278Z,574.00
2023-03-22T09:18:01.360Z,400.00
2023-03-22T09:22:01.498Z,481.00
2023-03-22T09:26:01.617Z,587.00
2023-03-22T09:30:01.659Z,2192.00
2023-03-22T09:34:01.855Z,826.00
2023-03-22T09:38:01.976Z,626.00
2023-03-22T09:42:02.185Z,637.00
2023-03-22T09:46:02.290Z,508.00
2023-03-22T09:50:02.378Z,569.00
2023-03-22T09:54:02.497Z,592.00
2023-03-22T09:58:02.624Z,1292.00
2023-03-22T10:02:03.055Z,603.00
2023-03-22T10:06:02.906Z,709.00
2023-03-22T10:10:02.967Z,477.00
2023-03-22T10:14:03.085Z,587.00
2023-03-22T10:18:03.217Z,528.00
2023-03-22T10:22:03.352Z,438.00
2023-03-22T10:26:03.455Z,491.00
2023-03-22T10:30:03.613Z,447.00
2023-03-22T10:34:03.681Z,490.00
2023-03-22T10:38:03.720Z,1176.00
2023-03-22T10:42:03.872Z,579.00
2023-03-22T10:46:04.043Z,800.00
2023-03-22T10:50:04.227Z,553.00
2023-03-22T10:54:04.260Z,400.00
2023-03-22T10:58:04.384Z,400.00
2023-03-22T11:02:04.626Z,659.00
2023-03-22T11:06:04.646Z,1673.00
2023-03-22T11:10:04.852Z,2231.00
2023-03-22T11:14:04.962Z,1944.00
2023-03-22T11:18:05.089Z,1171.00
2023-03-22T11:22:05.159Z,571.00
2023-03-22T11:26:05.317Z,973.00
2023-03-22T11:30:05.438Z,1532.00
2023-03-22T11:34:05.505Z,1995.00
2023-03-22T11:38:05.654Z,551.00
2023-03-22T11:42:05.767Z,1422.00
2023-03-22T11:46:05.874Z,1705.00
2023-03-22T11:50:06.891Z,988.00
2023-03-22T11:54:06.045Z,807.00
2023-03-22T11:58:06.134Z,574.00
2023-03-22T12:02:06.309Z,574.00
2023-03-22T12:06:06.493Z,948.00
2023-03-22T12:10:06.619Z,684.00
2023-03-22T12:14:06.651Z,400.00
2023-03-22T12:18:07.960Z,840.00
2023-03-22T12:22:06.886Z,537.00
2023-03-22T12:26:06.976Z,1118.00
2023-03-22T12:30:07.106Z,737.00
2023-03-22T12:34:07.256Z,907.00
2023-03-22T12:38:07.311Z,1400.00
2023-03-22T12:42:07.391Z,1643.00
2023-03-22T12:46:07.505Z,1485.00
2023-03-22T12:50:07.632Z,1408.00
2023-03-22T12:54:07.716Z,1370.00
2023-03-22T12:58:07.859Z,1484.00
2023-03-22T13:02:08.020Z,1606.00
2023-03-22T13:06:08.098Z,1688.00
2023-03-22T13:10:08.207Z,1745.00
2023-03-22T13:14:08.270Z,1965.00
2023-03-22T13:18:08.453Z,2491.00
2023-03-22T13:22:08.558Z,2605.00
2023-03-22T13:26:08.631Z,2879.00
2023-03-22T13:30:08.769Z,3071.00
2023-03-22T13:34:08.922Z,2865.00
2023-03-22T13:38:09.023Z,3389.00
2023-03-22T13:42:09.065Z,3248.00
2023-03-22T13:46:09.179Z,2765.00
2023-03-22T13:50:09.198Z,2781.00
2023-03-22T13:54:09.272Z,3265.00
2023-03-22T13:58:09.402Z,2566.00
2023-03-22T14:02:09.575Z,2083.00
2023-03-22T14:06:09.665Z,2419.00
2023-03-22T14:10:09.753Z,2751.00
2023-03-22T14:14:09.838Z,2820.00
2023-03-22T14:18:09.945Z,3990.00
2023-03-22T14:47:10.276Z,500.00
2023-03-22T14:51:10.267Z,400.00
2023-03-22T14:55:10.208Z,400.00
2023-03-22T14:59:10.159Z,1037.00
2023-03-22T15:03:11.506Z,2154.00
2023-03-22T15:07:10.088Z,1131.00
2023-03-22T15:11:11.527Z,1164.00
2023-03-22T15:15:10.002Z,496.00
2023-03-22T15:19:10.350Z,454.00
2023-03-22T15:23:10.114Z,1344.00
2023-03-22T15:27:10.327Z,539.00
2023-03-22T15:31:10.283Z,1087.00
2023-03-22T15:35:10.364Z,1418.00
2023-03-22T15:39:10.494Z,1027.00
2023-03-22T15:43:10.606Z,4046.00
2023-03-22T15:47:10.623Z,4802.00
2023-03-22T15:51:10.764Z,5915.00
2023-03-22T15:55:10.857Z,2392.00
2023-03-22T15:59:10.987Z,2643.00
2023-03-22T16:03:11.220Z,2757.00
2023-03-22T16:07:11.274Z,5291.00
2023-03-22T16:11:11.302Z,5142.00
2023-03-22T16:15:11.464Z,4577.00
2023-03-22T16:19:11.653Z,4760.00
2023-03-22T16:23:11.685Z,4804.00
2023-03-22T16:27:11.941Z,4816.00
2023-03-22T16:31:12.149Z,5596.00
2023-03-22T16:35:12.216Z,5825.00
2023-03-22T16:39:12.417Z,4956.00
2023-03-22T16:43:12.573Z,5724.00
2023-03-22T16:47:12.750Z,3923.00
2023-03-22T16:51:12.859Z,3566.00
2023-03-22T16:55:12.965Z,4960.00
2023-03-22T16:59:13.058Z,5077.00
2023-03-22T17:03:13.229Z,8070.00
2023-03-22T17:07:13.356Z,6523.00
2023-03-22T17:11:13.444Z,5481.00
2023-03-22T17:15:13.508Z,5594.00
2023-03-22T17:19:13.686Z,4291.00
2023-03-22T17:23:13.737Z,2913.00
2023-03-22T17:27:13.862Z,6009.00
2023-03-22T17:31:14.018Z,6493.00
2023-03-22T17:35:14.158Z,5603.00
2023-03-22T17:39:32.982Z,5262.00
2023-03-22T17:43:15.247Z,6209.00
2023-03-22T17:51:14.206Z,7094.00
2023-03-22T17:55:19.650Z,8090.00
2023-03-22T17:59:15.105Z,8038.00
2023-03-22T18:03:14.089Z,7077.00
2023-03-22T18:07:14.033Z,7446.00
2023-03-22T18:11:14.065Z,7476.00
2023-03-22T18:15:14.183Z,7386.00
2023-03-22T18:19:14.321Z,6243.00
2023-03-22T18:23:14.444Z,6375.00
2023-03-22T18:27:15.860Z,6861.00
2023-03-22T18:31:14.687Z,6256.00
2023-03-22T18:35:14.830Z,5752.00
2023-03-22T18:39:55.208Z,6392.00
2023-03-22T18:43:15.855Z,6344.00
2023-03-22T18:47:14.862Z,6112.00
2023-03-22T18:51:14.818Z,5791.00
2023-03-22T18:55:28.904Z,5729.00
2023-03-22T18:59:15.859Z,5231.00
2023-03-22T19:03:14.776Z,5241.00
2023-03-22T19:07:19.960Z,4715.00
2023-03-22T19:11:15.691Z,4492.00
2023-03-22T19:19:14.653Z,4521.00
2023-03-22T19:23:14.593Z,4711.00
2023-03-22T19:27:18.339Z,4663.00
2023-03-22T19:31:15.520Z,4246.00
2023-03-22T19:35:14.486Z,4274.00
2023-03-22T19:39:15.192Z,5022.00
2023-03-22T19:43:14.548Z,4947.00
2023-03-22T19:47:14.675Z,4785.00
2023-03-22T19:51:14.799Z,4389.00
2023-03-22T19:55:14.837Z,4081.00
2023-03-22T19:59:16.981Z,4903.00
2023-03-22T20:03:14.954Z,4252.00
2023-03-22T20:07:14.918Z,3990.00
2023-03-22T20:11:27.615Z,4289.00
2023-03-22T20:15:15.822Z,4021.00
2023-03-22T20:19:14.869Z,4008.00
2023-03-22T20:23:14.770Z,3931.00
2023-03-22T20:27:15.549Z,4162.00
2023-03-22T20:31:14.899Z,3796.00
2023-03-22T20:35:15.022Z,3666.00
2023-03-22T20:39:15.095Z,3586.00
2023-03-22T20:43:15.216Z,3579.00
2023-03-22T20:47:15.341Z,3688.00
2023-03-22T20:51:15.486Z,4258.00
2023-03-22T20:55:15.653Z,4054.00
2023-03-22T20:59:15.779Z,3592.00
2023-03-22T21:03:15.839Z,3451.00
2023-03-22T21:07:15.893Z,3579.00
2023-03-22T21:11:15.997Z,3669.00
2023-03-22T21:15:16.126Z,3845.00
2023-03-22T21:19:16.926Z,3801.00
2023-03-22T21:23:16.297Z,3695.00
2023-03-22T21:27:16.439Z,3559.00
2023-03-22T21:31:16.557Z,3570.00
2023-03-22T21:35:16.603Z,3855.00
2023-03-22T21:39:16.767Z,3731.00
2023-03-22T21:43:16.821Z,3560.00
2023-03-22T21:47:16.986Z,3589.00
2023-03-22T21:51:17.079Z,3432.00
2023-03-22T21:55:17.229Z,2934.00
2023-03-22T21:59:17.310Z,3034.00
2023-03-22T22:03:17.454Z,3916.00
2023-03-22T22:07:17.574Z,3666.00
2023-03-22T22:11:17.708Z,3634.00
2023-03-22T22:15:17.833Z,3676.00
2023-03-22T22:19:18.061Z,3726.00
2023-03-22T22:23:18.063Z,3984.00
2023-03-22T22:27:18.217Z,3785.00
2023-03-22T22:31:18.404Z,3908.00
2023-03-22T22:35:18.506Z,3673.00
2023-03-22T22:39:18.658Z,3789.00
2023-03-22T22:43:18.730Z,3604.00
2023-03-22T22:47:18.865Z,3294.00
2023-03-22T22:51:18.933Z,3434.00
2023-03-22T22:55:19.100Z,3370.00
2023-03-22T22:59:19.192Z,3620.00
2023-03-22T23:03:19.291Z,3486.00
2023-03-22T23:07:19.404Z,3710.00
2023-03-22T23:11:19.479Z,3036.00
2023-03-22T23:15:27.069Z,2947.00
2023-03-22T23:19:20.601Z,3032.00
2023-03-22T23:23:19.569Z,3038.00
2023-03-22T23:27:19.508Z,2946.00
2023-03-22T23:31:19.694Z,2913.00
2023-03-22T23:35:19.806Z,3396.00
2023-03-22T23:39:19.874Z,3540.00
2023-03-22T23:43:19.969Z,3356.00
2023-03-22T23:47:20.173Z,3250.00
2023-03-22T23:51:20.282Z,3359.00
2023-03-22T23:55:20.421Z,3326.00
2023-03-22T23:59:20.572Z,4144.00
